Station History

Weather Underground - logo

Station Historical Data
Daily Summary for August 8, 2017 Units:  English    Metric   Both
« Previous Day
Next Day »
Daily Weekly Monthly Yearly Custom
  High: Low: Average:
Temperature: 98.3 °F 65.4 °F 82.4 °F
Dew Point: 67.5 °F 52.1 °F 62.3 °F
Humidity: 88 % 22 % 55 %
Wind Speed: 5.8 mph 0.0 mph 1.4 mph
Wind Gust: 5.8 mph - -
Wind:- - SW
Pressure: 29.88 in 29.74 in -
Precipitation: 0.00 in    
Historical Graphs
 
 
Tabular Data for August 8, 2017
Time Temperature Dew Point Pressure Wind Wind Speed Wind Gust Humidity Rainfall Rate (Hourly)
00:01 79.1 °F 63.5 °F 29.82 in Calm     59 % 0.00 in
00:06 78.8 °F 63.7 °F 29.82 in Calm     60 % 0.00 in
00:11 78.3 °F 64.2 °F 29.82 in Calm     62 % 0.00 in
00:16 77.9 °F 63.8 °F 29.82 in Calm     62 % 0.00 in
00:21 77.7 °F 62.7 °F 29.82 in NW 1.2 mph 1.2 mph 60 % 0.00 in
00:26 77.5 °F 63.0 °F 29.82 in Calm     61 % 0.00 in
00:31 77.5 °F 62.0 °F 29.82 in Calm     59 % 0.00 in
00:36 77.9 °F 61.9 °F 29.82 in Calm     58 % 0.00 in
00:47 77.9 °F 61.4 °F 29.82 in Calm     57 % 0.00 in
00:52 77.8 °F 61.8 °F 29.82 in Calm     58 % 0.00 in
00:57 77.3 °F 61.9 °F 29.82 in Calm     59 % 0.00 in
01:02 77.2 °F 61.3 °F 29.82 in NW 1.2 mph   58 % 0.00 in
01:07 77.4 °F 61.0 °F 29.82 in NW 1.2 mph 1.2 mph 57 % 0.00 in
01:12 77.2 °F 61.3 °F 29.82 in North 1.2 mph 1.2 mph 58 % 0.00 in
01:17 77.1 °F 61.2 °F 29.82 in North 1.2 mph 1.2 mph 58 % 0.00 in
01:22 76.9 °F 61.0 °F 29.82 in Calm     58 % 0.00 in
01:27 76.7 °F 60.8 °F 29.82 in North 1.2 mph 1.2 mph 58 % 0.00 in
01:32 76.5 °F 61.1 °F 29.82 in Calm     59 % 0.00 in
01:37 76.2 °F 62.2 °F 29.82 in Calm     62 % 0.00 in
01:42 75.7 °F 61.8 °F 29.82 in Calm     62 % 0.00 in
01:47 75.2 °F 62.2 °F 29.82 in Calm     64 % 0.00 in
01:52 74.8 °F 61.8 °F 29.82 in Calm     64 % 0.00 in
01:57 74.3 °F 62.2 °F 29.82 in Calm     66 % 0.00 in
02:02 73.8 °F 62.6 °F 29.82 in Calm     68 % 0.00 in
02:07 73.5 °F 61.9 °F 29.82 in Calm     67 % 0.00 in
02:12 73.5 °F 61.4 °F 29.82 in Calm     66 % 0.00 in
02:17 73.7 °F 61.6 °F 29.82 in Calm     66 % 0.00 in
02:22 73.6 °F 61.1 °F 29.82 in Calm     65 % 0.00 in
02:27 73.4 °F 61.3 °F 29.82 in Calm     66 % 0.00 in
02:32 73.4 °F 61.8 °F 29.82 in Calm     67 % 0.00 in
02:37 73.3 °F 62.5 °F 29.82 in North 1.2 mph 1.2 mph 69 % 0.00 in
02:42 73.3 °F 61.7 °F 29.82 in Calm     67 % 0.00 in
02:47 73.6 °F 62.0 °F 29.82 in North 1.2 mph   67 % 0.00 in
02:52 73.5 °F 62.3 °F 29.82 in Calm     68 % 0.00 in
02:57 73.3 °F 62.9 °F 29.82 in Calm     70 % 0.00 in
03:02 72.8 °F 62.8 °F 29.82 in Calm     71 % 0.00 in
03:07 72.3 °F 62.4 °F 29.82 in Calm     71 % 0.00 in
03:12 71.9 °F 62.4 °F 29.82 in Calm     72 % 0.00 in
03:21 71.1 °F 62.0 °F 29.82 in Calm     73 % 0.00 in
03:26 70.9 °F 62.2 °F 29.82 in Calm     74 % 0.00 in
03:31 70.6 °F 62.7 °F 29.82 in Calm     76 % 0.00 in
03:36 70.2 °F 62.6 °F 29.82 in Calm     77 % 0.00 in
03:41 70.1 °F 62.6 °F 29.82 in Calm     77 % 0.00 in
03:46 69.9 °F 62.7 °F 29.82 in Calm     78 % 0.00 in
03:51 69.9 °F 62.7 °F 29.82 in Calm     78 % 0.00 in
03:56 69.8 °F 62.6 °F 29.82 in Calm     78 % 0.00 in
04:02 69.7 °F 62.5 °F 29.82 in Calm     78 % 0.00 in
04:07 69.5 °F 62.3 °F 29.82 in Calm     78 % 0.00 in
04:12 69.4 °F 62.2 °F 29.82 in Calm     78 % 0.00 in
04:17 69.5 °F 62.7 °F 29.82 in Calm     79 % 0.00 in
04:22 69.4 °F 62.6 °F 29.82 in Calm     79 % 0.00 in
04:27 69.0 °F 62.2 °F 29.83 in NNW 1.0 mph   79 % 0.00 in
04:32 68.5 °F 61.7 °F 29.83 in NNW 1.2 mph   79 % 0.00 in
04:37 67.9 °F 61.5 °F 29.83 in Calm     80 % 0.00 in
04:42 67.4 °F 61.7 °F 29.83 in Calm     82 % 0.00 in
04:47 67.1 °F 61.8 °F 29.83 in NNW 1.2 mph 1.2 mph 83 % 0.00 in
04:52 66.9 °F 61.6 °F 29.83 in Calm     83 % 0.00 in
04:57 66.7 °F 61.7 °F 29.83 in Calm     84 % 0.00 in
05:02 66.5 °F 61.8 °F 29.83 in Calm     85 % 0.00 in
05:07 66.3 °F 62.0 °F 29.83 in Calm     86 % 0.00 in
05:12 66.2 °F 61.9 °F 29.83 in Calm     86 % 0.00 in
05:17 66.1 °F 61.8 °F 29.84 in Calm     86 % 0.00 in
05:22 66.0 °F 61.7 °F 29.83 in Calm     86 % 0.00 in
05:27 65.8 °F 61.5 °F 29.84 in Calm     86 % 0.00 in
05:32 65.7 °F 61.7 °F 29.84 in NNW 1.2 mph   87 % 0.00 in
05:37 65.6 °F 61.6 °F 29.84 in NNW 1.2 mph 1.2 mph 87 % 0.00 in
05:42 65.5 °F 61.5 °F 29.84 in Calm     87 % 0.00 in
05:47 65.4 °F 61.4 °F 29.84 in Calm     87 % 0.00 in
05:52 65.5 °F 61.5 °F 29.84 in NNW 1.2 mph 1.2 mph 87 % 0.00 in
05:57 65.5 °F 61.5 °F 29.84 in NNW 1.2 mph   87 % 0.00 in
06:02 65.6 °F 61.6 °F 29.85 in Calm     87 % 0.00 in
06:07 65.6 °F 61.6 °F 29.85 in Calm     87 % 0.00 in
06:12 65.7 °F 61.7 °F 29.85 in Calm     87 % 0.00 in
06:17 65.7 °F 61.7 °F 29.85 in Calm     87 % 0.00 in
06:22 65.7 °F 61.7 °F 29.85 in NNW 1.2 mph   87 % 0.00 in
06:27 65.7 °F 61.7 °F 29.85 in NNW 1.2 mph   87 % 0.00 in
06:29 65.7 °F 62.0 °F 29.85 in Calm     88 % 0.00 in
06:34 65.7 °F 62.0 °F 29.86 in Calm   0.1 mph 88 % 0.00 in
06:39 65.8 °F 62.1 °F 29.86 in Calm     88 % 0.00 in
06:44 66.0 °F 62.0 °F 29.86 in Calm     87 % 0.00 in
06:49 66.2 °F 62.2 °F 29.86 in Calm     87 % 0.00 in
06:54 66.4 °F 62.4 °F 29.86 in NNW 1.2 mph   87 % 0.00 in
07:04 67.0 °F 62.7 °F 29.87 in NNW 1.2 mph   86 % 0.00 in
07:09 67.3 °F 62.6 °F 29.87 in NNW 1.2 mph 1.2 mph 85 % 0.00 in
07:15 67.7 °F 63.0 °F 29.87 in NW 1.2 mph 1.2 mph 85 % 0.00 in
07:20 68.2 °F 63.2 °F 29.87 in Calm     84 % 0.00 in
07:25 69.0 °F 63.3 °F 29.87 in SE 1.2 mph 1.2 mph 82 % 0.00 in
07:30 69.9 °F 63.4 °F 29.87 in Calm     80 % 0.00 in
07:35 71.1 °F 63.9 °F 29.87 in East 1.2 mph   78 % 0.00 in
07:40 71.7 °F 63.7 °F 29.87 in SSW 2.3 mph 2.3 mph 76 % 0.00 in
07:45 71.8 °F 63.4 °F 29.88 in ESE 1.2 mph 1.2 mph 75 % 0.00 in
07:50 72.0 °F 63.6 °F 29.88 in ENE 3.5 mph 3.5 mph 75 % 0.00 in
07:55 72.6 °F 63.8 °F 29.88 in ENE 2.3 mph 2.3 mph 74 % 0.00 in
08:00 73.0 °F 63.8 °F 29.88 in East 1.2 mph 1.2 mph 73 % 0.00 in
08:05 73.8 °F 64.2 °F 29.88 in South 2.3 mph 2.3 mph 72 % 0.00 in
08:10 74.4 °F 64.0 °F 29.88 in ESE 1.2 mph 1.2 mph 70 % 0.00 in
08:15 75.0 °F 64.5 °F 29.88 in ESE 1.2 mph 1.2 mph 70 % 0.00 in
08:20 75.3 °F 64.0 °F 29.88 in ENE 3.5 mph 3.5 mph 68 % 0.00 in
08:25 75.5 °F 63.8 °F 29.88 in East 3.5 mph 3.5 mph 67 % 0.00 in
08:30 75.9 °F 63.7 °F 29.88 in South 2.3 mph 2.3 mph 66 % 0.00 in
08:35 76.5 °F 63.9 °F 29.88 in ENE 3.5 mph 3.5 mph 65 % 0.00 in
08:40 76.9 °F 63.8 °F 29.88 in East 4.6 mph 4.6 mph 64 % 0.00 in
08:45 77.3 °F 64.2 °F 29.88 in SE 2.3 mph   64 % 0.00 in
08:50 78.2 °F 64.6 °F 29.88 in SE 2.3 mph 2.3 mph 63 % 0.00 in
08:55 78.6 °F 64.5 °F 29.88 in NE 3.5 mph 3.5 mph 62 % 0.00 in
09:00 79.2 °F 64.6 °F 29.88 in South 3.0 mph 3.0 mph 61 % 0.00 in
09:05 79.2 °F 64.6 °F 29.88 in SE 1.2 mph 1.2 mph 61 % 0.00 in
09:07 79.3 °F 64.7 °F 29.88 in SSW 1.2 mph 1.2 mph 61 % 0.00 in
09:12 79.8 °F 64.7 °F 29.88 in South 3.5 mph 3.5 mph 60 % 0.00 in
09:17 80.2 °F 64.6 °F 29.88 in SSE 3.5 mph 3.5 mph 59 % 0.00 in
09:22 80.6 °F 64.9 °F 29.88 in South 1.2 mph 1.2 mph 59 % 0.00 in
09:27 81.0 °F 64.8 °F 29.88 in SSE 2.3 mph 2.3 mph 58 % 0.00 in
09:33 81.1 °F 64.9 °F 29.88 in ENE 3.5 mph 3.5 mph 58 % 0.00 in
09:38 81.3 °F 64.6 °F 29.88 in ESE 2.3 mph 2.3 mph 57 % 0.00 in
09:43 81.4 °F 64.7 °F 29.88 in South 3.5 mph 3.5 mph 57 % 0.00 in
09:48 81.8 °F 65.6 °F 29.88 in SSW 2.0 mph 2.0 mph 58 % 0.00 in
09:53 82.4 °F 65.1 °F 29.88 in SE 2.3 mph 2.3 mph 56 % 0.00 in
09:58 82.4 °F 64.6 °F 29.88 in South 3.5 mph 3.5 mph 55 % 0.00 in
10:03 82.9 °F 64.5 °F 29.88 in SE 3.5 mph 3.5 mph 54 % 0.00 in
10:08 83.1 °F 65.8 °F 29.88 in SSE 1.2 mph 1.2 mph 56 % 0.00 in
10:13 83.5 °F 64.0 °F 29.88 in SSE 4.0 mph 4.0 mph 52 % 0.00 in
10:18 83.5 °F 65.1 °F 29.88 in SE 3.5 mph 3.5 mph 54 % 0.00 in
10:23 83.9 °F 64.9 °F 29.88 in SSE 3.5 mph 3.5 mph 53 % 0.00 in
10:28 84.1 °F 65.1 °F 29.88 in WNW 1.2 mph 1.2 mph 53 % 0.00 in
10:33 84.5 °F 65.5 °F 29.88 in WNW 2.3 mph 2.3 mph 53 % 0.00 in
10:38 84.8 °F 65.8 °F 29.88 in NNW 3.5 mph 3.5 mph 53 % 0.00 in
10:39 84.8 °F 65.2 °F 29.88 in ESE 3.5 mph 3.5 mph 52 % 0.00 in
10:44 85.2 °F 66.1 °F 29.88 in North 3.5 mph 3.5 mph 53 % 0.00 in
10:49 85.0 °F 65.4 °F 29.87 in NW 2.3 mph 2.3 mph 52 % 0.00 in
10:54 85.1 °F 64.9 °F 29.87 in WNW 2.3 mph 2.3 mph 51 % 0.00 in
10:59 85.5 °F 67.5 °F 29.87 in SSE 1.2 mph 1.2 mph 55 % 0.00 in
11:04 86.2 °F 65.9 °F 29.87 in ESE 1.2 mph 1.5 mph 51 % 0.00 in
11:06 86.3 °F 66.0 °F 29.87 in WNW 2.0 mph 2.0 mph 51 % 0.00 in
11:10 86.1 °F 65.9 °F 29.87 in SE 1.2 mph 1.2 mph 51 % 0.00 in
11:15 86.5 °F 65.7 °F 29.87 in ESE 3.5 mph 3.5 mph 50 % 0.00 in
11:20 86.7 °F 66.4 °F 29.86 in SE 4.6 mph 4.6 mph 51 % 0.00 in
11:25 86.9 °F 66.6 °F 29.86 in NNW 2.0 mph 2.0 mph 51 % 0.00 in
11:30 87.0 °F 66.1 °F 29.86 in NNW 2.3 mph 2.3 mph 50 % 0.00 in
11:35 87.4 °F 65.9 °F 29.86 in SE 3.5 mph 3.5 mph 49 % 0.00 in
11:40 87.5 °F 64.8 °F 29.86 in NW 3.5 mph 3.5 mph 47 % 0.00 in
11:45 87.8 °F 65.7 °F 29.86 in SSW 3.5 mph 3.5 mph 48 % 0.00 in
11:50 88.3 °F 66.7 °F 29.86 in SE 3.0 mph 3.0 mph 49 % 0.00 in
11:55 88.4 °F 65.0 °F 29.86 in NW 2.3 mph 2.3 mph 46 % 0.00 in
12:00 88.7 °F 65.9 °F 29.86 in WNW 3.5 mph 3.5 mph 47 % 0.00 in
12:05 88.9 °F 65.4 °F 29.85 in NW 1.2 mph 1.2 mph 46 % 0.00 in
12:10 89.2 °F 65.1 °F 29.85 in WNW 3.5 mph 3.5 mph 45 % 0.00 in
12:15 89.0 °F 66.2 °F 29.85 in SE 3.5 mph 3.5 mph 47 % 0.00 in
12:20 90.1 °F 66.5 °F 29.85 in NW 3.5 mph 3.5 mph 46 % 0.00 in
12:25 89.8 °F 65.6 °F 29.85 in NW 3.5 mph 3.5 mph 45 % 0.00 in
12:30 90.4 °F 65.5 °F 29.85 in SSE 3.5 mph 3.5 mph 44 % 0.00 in
12:35 90.7 °F 66.4 °F 29.85 in South 2.3 mph 2.3 mph 45 % 0.00 in
12:41 91.1 °F 65.5 °F 29.84 in North 2.3 mph 2.3 mph 43 % 0.00 in
12:46 90.8 °F 63.9 °F 29.84 in NW 2.3 mph 2.3 mph 41 % 0.00 in
12:51 90.9 °F 63.2 °F 29.84 in NW 2.3 mph 2.3 mph 40 % 0.00 in
12:56 91.6 °F 65.9 °F 29.84 in SSW 1.2 mph 1.2 mph 43 % 0.00 in
13:01 91.7 °F 66.0 °F 29.84 in NE 3.5 mph 3.5 mph 43 % 0.00 in
13:06 92.1 °F 62.8 °F 29.84 in NNE 2.3 mph 2.3 mph 38 % 0.00 in
13:11 92.4 °F 66.0 °F 29.84 in ENE 2.3 mph 2.3 mph 42 % 0.00 in
13:16 92.8 °F 64.2 °F 29.83 in NW 3.5 mph 3.5 mph 39 % 0.00 in
13:21 92.9 °F 62.0 °F 29.83 in North 3.5 mph 3.5 mph 36 % 0.00 in
13:26 92.7 °F 64.1 °F 29.83 in NW 2.3 mph 2.3 mph 39 % 0.00 in
13:31 92.7 °F 63.4 °F 29.83 in NW 3.5 mph 3.5 mph 38 % 0.00 in
13:36 93.4 °F 66.9 °F 29.83 in WNW 3.5 mph 3.5 mph 42 % 0.00 in
13:41 93.9 °F 62.9 °F 29.82 in NW 1.2 mph   36 % 0.00 in
13:46 94.3 °F 64.0 °F 29.82 in West 2.0 mph 2.0 mph 37 % 0.00 in
13:51 94.5 °F 64.2 °F 29.82 in ESE 1.2 mph 1.2 mph 37 % 0.00 in
13:56 95.3 °F 64.9 °F 29.82 in SW 2.3 mph 2.3 mph 37 % 0.00 in
14:01 95.4 °F 64.2 °F 29.82 in NE 2.3 mph 2.3 mph 36 % 0.00 in
14:06 95.8 °F 65.4 °F 29.82 in East 3.5 mph 3.5 mph 37 % 0.00 in
14:11 95.7 °F 63.7 °F 29.81 in NW 2.3 mph 2.3 mph 35 % 0.00 in
14:16 96.0 °F 64.7 °F 29.81 in NW 3.5 mph 3.5 mph 36 % 0.00 in
14:21 96.0 °F 65.5 °F 29.81 in SE 1.2 mph 1.2 mph 37 % 0.00 in
14:26 96.5 °F 65.2 °F 29.81 in WNW 1.0 mph 1.0 mph 36 % 0.00 in
14:31 96.6 °F 63.6 °F 29.81 in NW 1.2 mph 1.2 mph 34 % 0.00 in
14:36 96.7 °F 62.9 °F 29.80 in NE 4.6 mph 4.6 mph 33 % 0.00 in
14:41 96.5 °F 61.8 °F 29.80 in NNW 2.3 mph 2.3 mph 32 % 0.00 in
14:46 96.7 °F 62.9 °F 29.80 in NW 2.3 mph 2.3 mph 33 % 0.00 in
14:51 97.4 °F 62.6 °F 29.80 in SSW 1.2 mph 1.2 mph 32 % 0.00 in
14:56 97.4 °F 58.8 °F 29.80 in NW 3.5 mph 3.5 mph 28 % 0.00 in
15:01 97.5 °F 62.7 °F 29.80 in NE 1.0 mph 1.0 mph 32 % 0.00 in
15:06 97.5 °F 59.9 °F 29.79 in NNW 3.5 mph 3.5 mph 29 % 0.00 in
15:11 97.3 °F 61.6 °F 29.79 in North 2.3 mph 2.3 mph 31 % 0.00 in
15:16 97.7 °F 59.1 °F 29.79 in SE 1.2 mph 1.2 mph 28 % 0.00 in
15:21 97.8 °F 58.2 °F 29.79 in NW 3.5 mph 3.5 mph 27 % 0.00 in
15:26 97.6 °F 56.9 °F 29.78 in NW 2.3 mph 2.3 mph 26 % 0.00 in
15:31 97.9 °F 59.3 °F 29.78 in West 2.3 mph 2.3 mph 28 % 0.00 in
15:36 97.9 °F 57.2 °F 29.78 in WNW 3.5 mph 3.5 mph 26 % 0.00 in
15:41 97.7 °F 55.9 °F 29.78 in NNW 3.5 mph 3.5 mph 25 % 0.00 in
15:46 97.7 °F 55.9 °F 29.78 in North 3.5 mph 3.5 mph 25 % 0.00 in
15:51 98.2 °F 59.5 °F 29.78 in WNW 2.3 mph 2.3 mph 28 % 0.00 in
15:56 98.3 °F 56.4 °F 29.77 in SE 3.0 mph 3.0 mph 25 % 0.00 in
16:01 98.2 °F 56.4 °F 29.77 in NNW 3.5 mph 3.5 mph 25 % 0.00 in
16:07 97.8 °F 57.1 °F 29.77 in NW 3.5 mph 3.5 mph 26 % 0.00 in
16:12 97.4 °F 56.8 °F 29.77 in WNW 4.6 mph 4.6 mph 26 % 0.00 in
16:17 97.7 °F 54.8 °F 29.77 in NW 3.5 mph 3.5 mph 24 % 0.00 in
16:22 98.0 °F 57.3 °F 29.76 in NW 4.6 mph 4.6 mph 26 % 0.00 in
16:27 97.5 °F 54.6 °F 29.76 in NW 4.6 mph 4.6 mph 24 % 0.00 in
16:32 97.4 °F 55.7 °F 29.76 in NW 3.5 mph 3.5 mph 25 % 0.00 in
16:37 97.4 °F 53.4 °F 29.76 in NW 3.5 mph 3.5 mph 23 % 0.00 in
16:42 97.5 °F 53.5 °F 29.76 in North 3.5 mph 3.5 mph 23 % 0.00 in
16:47 97.4 °F 53.4 °F 29.76 in NW 3.5 mph 3.5 mph 23 % 0.00 in
16:52 97.3 °F 52.1 °F 29.76 in ENE 5.8 mph 5.8 mph 22 % 0.00 in
16:57 97.3 °F 53.3 °F 29.76 in NNW 3.5 mph 3.5 mph 23 % 0.00 in
17:02 97.1 °F 54.3 °F 29.76 in WNW 3.5 mph 3.5 mph 24 % 0.00 in
17:08 97.3 °F 55.6 °F 29.76 in WSW 4.0 mph 4.0 mph 25 % 0.00 in
17:13 97.5 °F 54.6 °F 29.75 in NNW 3.5 mph 3.5 mph 24 % 0.00 in
17:18 97.4 °F 55.7 °F 29.75 in WNW 4.6 mph 4.6 mph 25 % 0.00 in
17:23 97.4 °F 55.7 °F 29.75 in NW 1.2 mph 1.2 mph 25 % 0.00 in
17:28 97.5 °F 54.6 °F 29.75 in NW 3.5 mph 3.5 mph 24 % 0.00 in
17:33 97.2 °F 56.6 °F 29.75 in WNW 4.6 mph 4.6 mph 26 % 0.00 in
17:38 97.1 °F 56.5 °F 29.75 in WNW 2.3 mph 2.3 mph 26 % 0.00 in
17:44 97.1 °F 56.5 °F 29.75 in NW 3.5 mph 3.5 mph 26 % 0.00 in
17:49 97.0 °F 56.4 °F 29.75 in NNW 2.3 mph 2.3 mph 26 % 0.00 in
17:54 96.9 °F 57.4 °F 29.75 in WSW 3.5 mph 3.5 mph 27 % 0.00 in
17:59 96.8 °F 58.3 °F 29.75 in NW 2.3 mph 2.3 mph 28 % 0.00 in
18:04 96.7 °F 58.2 °F 29.75 in WNW 3.5 mph 3.5 mph 28 % 0.00 in
18:09 96.6 °F 58.2 °F 29.75 in North 3.5 mph 3.5 mph 28 % 0.00 in
18:14 96.3 °F 58.9 °F 29.75 in NW 2.3 mph 2.3 mph 29 % 0.00 in
18:19 96.2 °F 58.8 °F 29.75 in NNW 3.5 mph 3.5 mph 29 % 0.00 in
18:24 96.1 °F 58.7 °F 29.75 in NW 2.3 mph 2.3 mph 29 % 0.00 in
18:29 96.0 °F 58.6 °F 29.75 in NW 3.5 mph 3.5 mph 29 % 0.00 in
18:34 95.7 °F 59.3 °F 29.75 in North 2.3 mph 2.3 mph 30 % 0.00 in
18:39 95.6 °F 59.2 °F 29.75 in NW 2.3 mph 2.3 mph 30 % 0.00 in
18:44 95.6 °F 59.2 °F 29.75 in NNW 2.3 mph 2.3 mph 30 % 0.00 in
18:49 95.3 °F 59.0 °F 29.74 in NW 2.3 mph 2.3 mph 30 % 0.00 in
18:54 94.5 °F 59.2 °F 29.74 in WNW 1.2 mph 1.2 mph 31 % 0.00 in
18:59 93.8 °F 59.5 °F 29.74 in NNW 1.2 mph 1.2 mph 32 % 0.00 in
19:04 93.3 °F 59.9 °F 29.74 in NW 1.2 mph 1.2 mph 33 % 0.00 in
19:09 92.8 °F 59.5 °F 29.74 in NW 1.2 mph 1.2 mph 33 % 0.00 in
19:14 92.4 °F 60.8 °F 29.74 in WNW 1.2 mph 1.2 mph 35 % 0.00 in
19:19 91.9 °F 60.3 °F 29.75 in Calm     35 % 0.00 in
19:24 91.4 °F 60.7 °F 29.75 in Calm   0.1 mph 36 % 0.00 in
19:29 90.9 °F 60.3 °F 29.74 in Calm   0.1 mph 36 % 0.00 in
19:34 90.5 °F 60.7 °F 29.74 in Calm     37 % 0.00 in
19:36 90.5 °F 60.7 °F 29.75 in Calm     37 % 0.00 in
19:41 90.2 °F 61.2 °F 29.75 in Calm     38 % 0.00 in
19:46 89.7 °F 61.5 °F 29.75 in Calm     39 % 0.00 in
19:51 89.0 °F 62.2 °F 29.75 in Calm     41 % 0.00 in
19:56 88.3 °F 61.6 °F 29.75 in Calm     41 % 0.00 in
20:01 87.5 °F 61.6 °F 29.75 in Calm     42 % 0.00 in
20:06 86.8 °F 62.3 °F 29.75 in Calm     44 % 0.00 in
20:11 86.1 °F 63.5 °F 29.75 in Calm     47 % 0.00 in
20:16 85.4 °F 62.3 °F 29.75 in Calm     46 % 0.00 in
20:18 85.3 °F 62.8 °F 29.75 in Calm     47 % 0.00 in
20:21 85.0 °F 61.9 °F 29.75 in Calm     46 % 0.00 in
20:22 85.0 °F 61.9 °F 29.75 in Calm     46 % 0.00 in
20:25 84.8 °F 61.7 °F 29.75 in Calm     46 % 0.00 in
20:30 84.4 °F 62.0 °F 29.75 in Calm     47 % 0.00 in
20:35 84.2 °F 62.4 °F 29.75 in Calm     48 % 0.00 in
20:40 83.9 °F 62.7 °F 29.75 in Calm     49 % 0.00 in
20:45 83.6 °F 62.4 °F 29.76 in Calm     49 % 0.00 in
20:50 83.3 °F 63.3 °F 29.76 in Calm     51 % 0.00 in
20:55 83.0 °F 62.4 °F 29.76 in Calm     50 % 0.00 in
21:00 82.6 °F 62.6 °F 29.76 in Calm     51 % 0.00 in
21:05 82.2 °F 62.8 °F 29.76 in Calm     52 % 0.00 in
21:10 81.9 °F 64.1 °F 29.76 in Calm     55 % 0.00 in
21:15 81.6 °F 64.9 °F 29.77 in Calm     57 % 0.00 in
21:20 81.3 °F 64.6 °F 29.77 in Calm     57 % 0.00 in
21:25 81.0 °F 64.8 °F 29.77 in Calm     58 % 0.00 in
21:30 80.8 °F 64.6 °F 29.77 in Calm     58 % 0.00 in
21:35 80.6 °F 64.0 °F 29.77 in Calm     57 % 0.00 in
21:40 80.4 °F 64.3 °F 29.78 in Calm     58 % 0.00 in
21:41 80.4 °F 64.3 °F 29.78 in Calm     58 % 0.00 in
21:46 80.1 °F 64.5 °F 29.78 in Calm     59 % 0.00 in
21:51 79.8 °F 64.7 °F 29.78 in Calm     60 % 0.00 in
21:56 79.7 °F 64.1 °F 29.78 in Calm     59 % 0.00 in
22:01 79.5 °F 63.9 °F 29.78 in Calm     59 % 0.00 in
22:06 79.5 °F 62.9 °F 29.78 in Calm     57 % 0.00 in
22:11 79.4 °F 63.3 °F 29.78 in Calm     58 % 0.00 in
22:16 79.2 °F 63.6 °F 29.78 in Calm     59 % 0.00 in
22:21 78.9 °F 63.8 °F 29.78 in Calm     60 % 0.00 in
22:26 78.6 °F 63.6 °F 29.78 in Calm     60 % 0.00 in
22:31 78.4 °F 63.8 °F 29.78 in Calm     61 % 0.00 in
22:36 78.1 °F 63.1 °F 29.78 in Calm     60 % 0.00 in
22:41 77.9 °F 63.8 °F 29.78 in Calm     62 % 0.00 in
22:46 77.6 °F 64.0 °F 29.78 in Calm     63 % 0.00 in
22:51 77.2 °F 63.6 °F 29.78 in Calm     63 % 0.00 in
22:56 77.0 °F 63.9 °F 29.78 in Calm     64 % 0.00 in
23:01 76.8 °F 64.1 °F 29.79 in Calm     65 % 0.00 in
23:06 76.5 °F 63.9 °F 29.79 in Calm     65 % 0.00 in
23:11 76.4 °F 64.2 °F 29.79 in Calm     66 % 0.00 in
23:16 76.1 °F 64.3 °F 29.79 in Calm     67 % 0.00 in
23:21 76.0 °F 64.2 °F 29.79 in Calm     67 % 0.00 in
23:26 76.2 °F 64.0 °F 29.79 in Calm     66 % 0.00 in
23:31 76.2 °F 64.0 °F 29.79 in Calm     66 % 0.00 in
23:36 76.0 °F 64.7 °F 29.79 in Calm     68 % 0.00 in
23:41 75.7 °F 64.4 °F 29.79 in Calm     68 % 0.00 in
23:46 75.5 °F 64.2 °F 29.80 in Calm     68 % 0.00 in
23:51 75.4 °F 64.1 °F 29.80 in Calm     68 % 0.00 in
23:56 75.2 °F 63.9 °F 29.80 in Calm     68 % 0.00 in
Park Place, Exeter, Tulare County, California, USA
Compliments of Weather Underground - 2.75 mb